sensor_id;sensor_type;location;lat;lon;timestamp;P1;durP1;ratioP1;P2;durP2;ratioP2
79173;SDS011;68599;49.142;9.124;2024-01-15T00:00:11;16.00;;;5.20;;
79173;SDS011;68599;49.142;9.124;2024-01-15T00:02:38;19.50;;;5.60;;
79173;SDS011;68599;49.142;9.124;2024-01-15T00:05:05;15.90;;;4.50;;
79173;SDS011;68599;49.142;9.124;2024-01-15T00:07:32;18.90;;;5.60;;
79173;SDS011;68599;49.142;9.124;2024-01-15T00:09:58;16.70;;;4.70;;
79173;SDS011;68599;49.142;9.124;2024-01-15T00:12:25;20.20;;;6.60;;
79173;SDS011;68599;49.142;9.124;2024-01-15T00:14:52;12.30;;;4.60;;
79173;SDS011;68599;49.142;9.124;2024-01-15T00:17:19;10.30;;;3.80;;
79173;SDS011;68599;49.142;9.124;2024-01-15T00:19:46;12.00;;;4.30;;
79173;SDS011;68599;49.142;9.124;2024-01-15T00:22:12;17.50;;;6.40;;
79173;SDS011;68599;49.142;9.124;2024-01-15T00:24:39;11.90;;;4.00;;
79173;SDS011;68599;49.142;9.124;2024-01-15T00:27:06;19.70;;;6.70;;
79173;SDS011;68599;49.142;9.124;2024-01-15T00:29:33;14.30;;;5.00;;
79173;SDS011;68599;49.142;9.124;2024-01-15T00:31:59;13.10;;;4.20;;
79173;SDS011;68599;49.142;9.124;2024-01-15T00:34:26;15.50;;;4.00;;
79173;SDS011;68599;49.142;9.124;2024-01-15T00:36:53;12.30;;;4.60;;
79173;SDS011;68599;49.142;9.124;2024-01-15T00:39:20;18.80;;;5.80;;
79173;SDS011;68599;49.142;9.124;2024-01-15T00:41:47;12.50;;;4.00;;
79173;SDS011;68599;49.142;9.124;2024-01-15T00:44:13;13.80;;;4.80;;
79173;SDS011;68599;49.142;9.124;2024-01-15T00:46:43;13.70;;;4.00;;
79173;SDS011;68599;49.142;9.124;2024-01-15T00:49:12;12.00;;;4.10;;
79173;SDS011;68599;49.142;9.124;2024-01-15T00:51:40;13.50;;;4.40;;
79173;SDS011;68599;49.142;9.124;2024-01-15T00:54:07;13.30;;;4.20;;
79173;SDS011;68599;49.142;9.124;2024-01-15T00:56:33;12.10;;;4.00;;
79173;SDS011;68599;49.142;9.124;2024-01-15T00:59:00;15.70;;;4.30;;
79173;SDS011;68599;49.142;9.124;2024-01-15T01:01:27;7.20;;;2.70;;
79173;SDS011;68599;49.142;9.124;2024-01-15T01:03:54;10.10;;;3.70;;
79173;SDS011;68599;49.142;9.124;2024-01-15T01:06:21;8.80;;;3.50;;
79173;SDS011;68599;49.142;9.124;2024-01-15T01:08:47;9.90;;;3.30;;
79173;SDS011;68599;49.142;9.124;2024-01-15T01:11:14;11.90;;;4.10;;
79173;SDS011;68599;49.142;9.124;2024-01-15T01:16:08;22.70;;;5.80;;
79173;SDS011;68599;49.142;9.124;2024-01-15T01:18:35;13.70;;;4.20;;
79173;SDS011;68599;49.142;9.124;2024-01-15T01:21:03;15.30;;;4.00;;
79173;SDS011;68599;49.142;9.124;2024-01-15T01:23:29;12.60;;;3.90;;
79173;SDS011;68599;49.142;9.124;2024-01-15T01:25:56;16.50;;;5.10;;
79173;SDS011;68599;49.142;9.124;2024-01-15T01:28:23;16.30;;;5.20;;
79173;SDS011;68599;49.142;9.124;2024-01-15T01:30:49;12.20;;;3.90;;
79173;SDS011;68599;49.142;9.124;2024-01-15T01:33:16;17.70;;;5.40;;
79173;SDS011;68599;49.142;9.124;2024-01-15T01:35:43;13.60;;;3.00;;
79173;SDS011;68599;49.142;9.124;2024-01-15T01:40:38;17.60;;;4.90;;
79173;SDS011;68599;49.142;9.124;2024-01-15T01:43:08;14.80;;;5.80;;
79173;SDS011;68599;49.142;9.124;2024-01-15T01:45:36;16.90;;;5.70;;
79173;SDS011;68599;49.142;9.124;2024-01-15T01:48:03;14.70;;;4.70;;
79173;SDS011;68599;49.142;9.124;2024-01-15T01:50:31;13.50;;;4.50;;
79173;SDS011;68599;49.142;9.124;2024-01-15T01:52:58;12.60;;;3.70;;
79173;SDS011;68599;49.142;9.124;2024-01-15T01:55:27;19.10;;;6.10;;
79173;SDS011;68599;49.142;9.124;2024-01-15T01:57:56;13.10;;;5.10;;
79173;SDS011;68599;49.142;9.124;2024-01-15T02:00:23;12.00;;;4.40;;
79173;SDS011;68599;49.142;9.124;2024-01-15T02:02:50;16.10;;;5.20;;
79173;SDS011;68599;49.142;9.124;2024-01-15T02:05:18;12.00;;;3.50;;
79173;SDS011;68599;49.142;9.124;2024-01-15T02:07:46;10.90;;;4.00;;
79173;SDS011;68599;49.142;9.124;2024-01-15T02:10:13;12.40;;;3.80;;
79173;SDS011;68599;49.142;9.124;2024-01-15T02:12:40;11.70;;;4.50;;
79173;SDS011;68599;49.142;9.124;2024-01-15T02:15:07;17.20;;;6.00;;
79173;SDS011;68599;49.142;9.124;2024-01-15T02:17:34;10.80;;;3.70;;
79173;SDS011;68599;49.142;9.124;2024-01-15T02:20:01;17.00;;;6.60;;
79173;SDS011;68599;49.142;9.124;2024-01-15T02:22:28;16.70;;;5.80;;
79173;SDS011;68599;49.142;9.124;2024-01-15T02:24:55;11.30;;;3.60;;
79173;SDS011;68599;49.142;9.124;2024-01-15T02:27:21;13.40;;;4.70;;
79173;SDS011;68599;49.142;9.124;2024-01-15T02:29:48;12.70;;;4.60;;
79173;SDS011;68599;49.142;9.124;2024-01-15T02:32:15;15.50;;;4.90;;
79173;SDS011;68599;49.142;9.124;2024-01-15T02:34:42;16.60;;;5.60;;
79173;SDS011;68599;49.142;9.124;2024-01-15T02:37:08;8.90;;;3.00;;
79173;SDS011;68599;49.142;9.124;2024-01-15T02:39:35;11.80;;;3.90;;
79173;SDS011;68599;49.142;9.124;2024-01-15T02:42:02;12.70;;;4.60;;
79173;SDS011;68599;49.142;9.124;2024-01-15T02:44:28;9.40;;;3.80;;
79173;SDS011;68599;49.142;9.124;2024-01-15T02:46:55;9.60;;;3.50;;
79173;SDS011;68599;49.142;9.124;2024-01-15T02:49:21;14.10;;;4.70;;
79173;SDS011;68599;49.142;9.124;2024-01-15T02:51:48;12.20;;;4.40;;
79173;SDS011;68599;49.142;9.124;2024-01-15T02:54:15;16.30;;;5.40;;
79173;SDS011;68599;49.142;9.124;2024-01-15T02:56:42;14.10;;;4.90;;
79173;SDS011;68599;49.142;9.124;2024-01-15T02:59:08;8.50;;;3.00;;
79173;SDS011;68599;49.142;9.124;2024-01-15T03:01:35;9.30;;;2.80;;
79173;SDS011;68599;49.142;9.124;2024-01-15T03:04:02;13.40;;;4.60;;
79173;SDS011;68599;49.142;9.124;2024-01-15T03:06:28;10.30;;;3.40;;
79173;SDS011;68599;49.142;9.124;2024-01-15T03:08:55;15.40;;;5.50;;
79173;SDS011;68599;49.142;9.124;2024-01-15T03:11:21;12.40;;;4.00;;
79173;SDS011;68599;49.142;9.124;2024-01-15T03:13:48;9.60;;;4.40;;
79173;SDS011;68599;49.142;9.124;2024-01-15T03:16:14;12.50;;;3.80;;
79173;SDS011;68599;49.142;9.124;2024-01-15T03:18:41;10.80;;;3.80;;
79173;SDS011;68599;49.142;9.124;2024-01-15T03:21:08;16.00;;;4.80;;
79173;SDS011;68599;49.142;9.124;2024-01-15T03:23:34;12.80;;;3.60;;
79173;SDS011;68599;49.142;9.124;2024-01-15T03:26:01;9.90;;;3.80;;
79173;SDS011;68599;49.142;9.124;2024-01-15T03:28:27;8.30;;;3.40;;
79173;SDS011;68599;49.142;9.124;2024-01-15T03:30:56;10.40;;;4.00;;
79173;SDS011;68599;49.142;9.124;2024-01-15T03:33:23;9.40;;;3.80;;
79173;SDS011;68599;49.142;9.124;2024-01-15T03:35:50;13.60;;;4.90;;
79173;SDS011;68599;49.142;9.124;2024-01-15T03:38:17;10.40;;;3.70;;
79173;SDS011;68599;49.142;9.124;2024-01-15T03:40:43;9.20;;;3.90;;
79173;SDS011;68599;49.142;9.124;2024-01-15T03:43:10;13.40;;;3.90;;
79173;SDS011;68599;49.142;9.124;2024-01-15T03:45:37;12.60;;;3.60;;
79173;SDS011;68599;49.142;9.124;2024-01-15T03:48:03;12.70;;;4.20;;
79173;SDS011;68599;49.142;9.124;2024-01-15T03:50:31;13.90;;;4.90;;
79173;SDS011;68599;49.142;9.124;2024-01-15T03:52:57;14.00;;;4.50;;
79173;SDS011;68599;49.142;9.124;2024-01-15T03:55:24;12.80;;;4.60;;
79173;SDS011;68599;49.142;9.124;2024-01-15T03:57:50;13.70;;;5.10;;
79173;SDS011;68599;49.142;9.124;2024-01-15T04:00:17;11.50;;;4.40;;
79173;SDS011;68599;49.142;9.124;2024-01-15T04:02:44;10.70;;;3.60;;
79173;SDS011;68599;49.142;9.124;2024-01-15T04:05:11;12.90;;;5.20;;
79173;SDS011;68599;49.142;9.124;2024-01-15T04:07:38;12.40;;;4.40;;
79173;SDS011;68599;49.142;9.124;2024-01-15T04:10:04;9.00;;;3.20;;
79173;SDS011;68599;49.142;9.124;2024-01-15T04:12:32;15.20;;;5.10;;
79173;SDS011;68599;49.142;9.124;2024-01-15T04:14:58;16.90;;;5.40;;
79173;SDS011;68599;49.142;9.124;2024-01-15T04:17:25;13.50;;;4.40;;
79173;SDS011;68599;49.142;9.124;2024-01-15T04:19:51;10.70;;;4.20;;
79173;SDS011;68599;49.142;9.124;2024-01-15T04:22:18;11.20;;;4.20;;
79173;SDS011;68599;49.142;9.124;2024-01-15T04:24:45;8.80;;;3.10;;
79173;SDS011;68599;49.142;9.124;2024-01-15T04:27:11;8.70;;;3.30;;
79173;SDS011;68599;49.142;9.124;2024-01-15T04:29:38;14.60;;;5.00;;
79173;SDS011;68599;49.142;9.124;2024-01-15T04:32:07;13.10;;;4.00;;
79173;SDS011;68599;49.142;9.124;2024-01-15T04:34:33;12.10;;;5.30;;
79173;SDS011;68599;49.142;9.124;2024-01-15T04:37:00;9.30;;;3.50;;
79173;SDS011;68599;49.142;9.124;2024-01-15T04:39:27;17.00;;;3.60;;
79173;SDS011;68599;49.142;9.124;2024-01-15T04:41:54;11.20;;;4.60;;
79173;SDS011;68599;49.142;9.124;2024-01-15T04:44:20;11.90;;;4.60;;
79173;SDS011;68599;49.142;9.124;2024-01-15T04:46:47;10.20;;;4.70;;
79173;SDS011;68599;49.142;9.124;2024-01-15T04:49:13;15.50;;;6.00;;
79173;SDS011;68599;49.142;9.124;2024-01-15T04:51:40;10.00;;;3.30;;
79173;SDS011;68599;49.142;9.124;2024-01-15T04:54:07;10.70;;;3.50;;
79173;SDS011;68599;49.142;9.124;2024-01-15T04:56:34;16.40;;;6.00;;
79173;SDS011;68599;49.142;9.124;2024-01-15T04:59:00;12.10;;;3.70;;
79173;SDS011;68599;49.142;9.124;2024-01-15T05:01:30;9.00;;;3.10;;
79173;SDS011;68599;49.142;9.124;2024-01-15T05:04:00;6.50;;;2.40;;
79173;SDS011;68599;49.142;9.124;2024-01-15T05:06:27;14.60;;;6.00;;
79173;SDS011;68599;49.142;9.124;2024-01-15T05:08:54;12.10;;;3.90;;
79173;SDS011;68599;49.142;9.124;2024-01-15T05:11:21;10.40;;;3.70;;
79173;SDS011;68599;49.142;9.124;2024-01-15T05:13:47;9.30;;;3.70;;
79173;SDS011;68599;49.142;9.124;2024-01-15T05:16:14;16.20;;;4.70;;
79173;SDS011;68599;49.142;9.124;2024-01-15T05:18:40;8.80;;;3.20;;
79173;SDS011;68599;49.142;9.124;2024-01-15T05:21:07;9.40;;;3.80;;
79173;SDS011;68599;49.142;9.124;2024-01-15T05:23:34;14.80;;;4.60;;
79173;SDS011;68599;49.142;9.124;2024-01-15T05:26:01;12.60;;;4.30;;
79173;SDS011;68599;49.142;9.124;2024-01-15T05:28:27;17.00;;;5.20;;
79173;SDS011;68599;49.142;9.124;2024-01-15T05:30:54;14.00;;;3.70;;
79173;SDS011;68599;49.142;9.124;2024-01-15T05:33:22;8.20;;;3.40;;
79173;SDS011;68599;49.142;9.124;2024-01-15T05:35:50;16.00;;;5.40;;
79173;SDS011;68599;49.142;9.124;2024-01-15T05:38:16;7.00;;;2.80;;
79173;SDS011;68599;49.142;9.124;2024-01-15T05:40:43;18.40;;;5.90;;
79173;SDS011;68599;49.142;9.124;2024-01-15T05:43:10;9.30;;;4.50;;
79173;SDS011;68599;49.142;9.124;2024-01-15T05:45:38;13.00;;;3.80;;
79173;SDS011;68599;49.142;9.124;2024-01-15T05:48:05;15.40;;;5.40;;
79173;SDS011;68599;49.142;9.124;2024-01-15T05:50:31;14.70;;;5.70;;
79173;SDS011;68599;49.142;9.124;2024-01-15T05:52:58;11.50;;;4.00;;
79173;SDS011;68599;49.142;9.124;2024-01-15T05:55:24;8.30;;;3.10;;
79173;SDS011;68599;49.142;9.124;2024-01-15T05:57:51;12.70;;;4.10;;
79173;SDS011;68599;49.142;9.124;2024-01-15T06:00:18;11.90;;;4.30;;
79173;SDS011;68599;49.142;9.124;2024-01-15T06:02:45;14.30;;;4.90;;
79173;SDS011;68599;49.142;9.124;2024-01-15T06:05:11;8.80;;;2.90;;
79173;SDS011;68599;49.142;9.124;2024-01-15T06:07:38;13.30;;;3.80;;
79173;SDS011;68599;49.142;9.124;2024-01-15T06:10:05;12.30;;;3.60;;
79173;SDS011;68599;49.142;9.124;2024-01-15T06:12:32;10.70;;;4.80;;
79173;SDS011;68599;49.142;9.124;2024-01-15T06:15:00;11.00;;;3.70;;
79173;SDS011;68599;49.142;9.124;2024-01-15T06:17:26;10.80;;;4.10;;
79173;SDS011;68599;49.142;9.124;2024-01-15T06:19:53;14.10;;;4.80;;
79173;SDS011;68599;49.142;9.124;2024-01-15T06:22:20;12.00;;;3.70;;
79173;SDS011;68599;49.142;9.124;2024-01-15T06:24:47;8.70;;;3.50;;
79173;SDS011;68599;49.142;9.124;2024-01-15T06:27:14;12.30;;;4.40;;
79173;SDS011;68599;49.142;9.124;2024-01-15T06:29:44;11.00;;;4.20;;
79173;SDS011;68599;49.142;9.124;2024-01-15T06:32:16;12.30;;;4.30;;
79173;SDS011;68599;49.142;9.124;2024-01-15T06:34:43;9.00;;;3.70;;
79173;SDS011;68599;49.142;9.124;2024-01-15T06:37:09;6.30;;;3.00;;
79173;SDS011;68599;49.142;9.124;2024-01-15T06:39:36;11.20;;;3.70;;
79173;SDS011;68599;49.142;9.124;2024-01-15T06:42:03;12.10;;;4.50;;
79173;SDS011;68599;49.142;9.124;2024-01-15T06:44:30;8.70;;;2.80;;
79173;SDS011;68599;49.142;9.124;2024-01-15T06:46:57;8.40;;;3.20;;
79173;SDS011;68599;49.142;9.124;2024-01-15T06:49:29;12.30;;;4.20;;
79173;SDS011;68599;49.142;9.124;2024-01-15T06:51:56;14.20;;;4.50;;
79173;SDS011;68599;49.142;9.124;2024-01-15T06:54:23;10.40;;;3.70;;
79173;SDS011;68599;49.142;9.124;2024-01-15T06:56:50;10.70;;;3.70;;
79173;SDS011;68599;49.142;9.124;2024-01-15T06:59:17;8.00;;;2.90;;
79173;SDS011;68599;49.142;9.124;2024-01-15T07:01:45;6.40;;;2.90;;
79173;SDS011;68599;49.142;9.124;2024-01-15T07:04:12;11.80;;;4.50;;
79173;SDS011;68599;49.142;9.124;2024-01-15T07:06:39;12.40;;;4.60;;
79173;SDS011;68599;49.142;9.124;2024-01-15T07:09:06;14.70;;;5.10;;
79173;SDS011;68599;49.142;9.124;2024-01-15T07:11:34;14.10;;;4.80;;
79173;SDS011;68599;49.142;9.124;2024-01-15T07:14:01;14.70;;;4.80;;
79173;SDS011;68599;49.142;9.124;2024-01-15T07:16:27;13.30;;;5.10;;
79173;SDS011;68599;49.142;9.124;2024-01-15T07:19:03;11.70;;;3.30;;
79173;SDS011;68599;49.142;9.124;2024-01-15T07:21:30;7.60;;;2.90;;
79173;SDS011;68599;49.142;9.124;2024-01-15T07:23:57;13.40;;;5.40;;
79173;SDS011;68599;49.142;9.124;2024-01-15T07:26:23;10.70;;;4.20;;
79173;SDS011;68599;49.142;9.124;2024-01-15T07:31:18;10.10;;;3.20;;
79173;SDS011;68599;49.142;9.124;2024-01-15T07:33:45;16.20;;;5.50;;
79173;SDS011;68599;49.142;9.124;2024-01-15T07:36:13;9.20;;;3.20;;
79173;SDS011;68599;49.142;9.124;2024-01-15T07:38:39;14.00;;;4.90;;
79173;SDS011;68599;49.142;9.124;2024-01-15T07:41:06;17.60;;;6.90;;
79173;SDS011;68599;49.142;9.124;2024-01-15T07:43:32;14.20;;;4.90;;
79173;SDS011;68599;49.142;9.124;2024-01-15T07:46:00;15.00;;;4.80;;
79173;SDS011;68599;49.142;9.124;2024-01-15T07:48:27;12.80;;;4.50;;
79173;SDS011;68599;49.142;9.124;2024-01-15T07:50:54;11.20;;;4.40;;
79173;SDS011;68599;49.142;9.124;2024-01-15T07:53:20;15.40;;;6.00;;
79173;SDS011;68599;49.142;9.124;2024-01-15T07:55:47;10.40;;;4.20;;
79173;SDS011;68599;49.142;9.124;2024-01-15T07:58:13;9.90;;;3.10;;
79173;SDS011;68599;49.142;9.124;2024-01-15T08:00:42;13.00;;;4.40;;
79173;SDS011;68599;49.142;9.124;2024-01-15T08:03:09;13.90;;;5.40;;
79173;SDS011;68599;49.142;9.124;2024-01-15T08:05:36;11.40;;;4.60;;
79173;SDS011;68599;49.142;9.124;2024-01-15T08:08:03;13.20;;;5.10;;
79173;SDS011;68599;49.142;9.124;2024-01-15T08:10:30;9.60;;;4.30;;
79173;SDS011;68599;49.142;9.124;2024-01-15T08:12:56;10.80;;;4.40;;
79173;SDS011;68599;49.142;9.124;2024-01-15T08:15:23;15.50;;;5.10;;
79173;SDS011;68599;49.142;9.124;2024-01-15T08:17:53;11.80;;;4.50;;
79173;SDS011;68599;49.142;9.124;2024-01-15T08:20:20;16.30;;;5.80;;
79173;SDS011;68599;49.142;9.124;2024-01-15T08:22:47;15.20;;;6.30;;
79173;SDS011;68599;49.142;9.124;2024-01-15T08:25:14;11.30;;;4.00;;
79173;SDS011;68599;49.142;9.124;2024-01-15T08:27:41;10.20;;;3.80;;
79173;SDS011;68599;49.142;9.124;2024-01-15T08:30:08;12.00;;;5.50;;
79173;SDS011;68599;49.142;9.124;2024-01-15T08:37:34;8.10;;;3.00;;
79173;SDS011;68599;49.142;9.124;2024-01-15T08:40:01;7.80;;;3.40;;
79173;SDS011;68599;49.142;9.124;2024-01-15T08:42:27;10.40;;;4.10;;
79173;SDS011;68599;49.142;9.124;2024-01-15T08:44:54;10.50;;;4.80;;
79173;SDS011;68599;49.142;9.124;2024-01-15T08:47:21;12.80;;;4.50;;
79173;SDS011;68599;49.142;9.124;2024-01-15T08:49:47;16.70;;;5.90;;
79173;SDS011;68599;49.142;9.124;2024-01-15T08:52:14;10.50;;;3.70;;
79173;SDS011;68599;49.142;9.124;2024-01-15T08:54:41;9.30;;;2.80;;
79173;SDS011;68599;49.142;9.124;2024-01-15T08:57:07;14.20;;;4.80;;
79173;SDS011;68599;49.142;9.124;2024-01-15T08:59:34;12.90;;;5.30;;
79173;SDS011;68599;49.142;9.124;2024-01-15T09:02:01;15.30;;;6.20;;
79173;SDS011;68599;49.142;9.124;2024-01-15T09:04:27;15.10;;;5.50;;
79173;SDS011;68599;49.142;9.124;2024-01-15T09:06:54;13.80;;;5.10;;
79173;SDS011;68599;49.142;9.124;2024-01-15T09:09:20;11.00;;;3.90;;
79173;SDS011;68599;49.142;9.124;2024-01-15T09:11:47;9.60;;;3.80;;
79173;SDS011;68599;49.142;9.124;2024-01-15T09:14:14;9.00;;;3.50;;
79173;SDS011;68599;49.142;9.124;2024-01-15T09:16:44;6.90;;;3.10;;
79173;SDS011;68599;49.142;9.124;2024-01-15T09:19:11;9.90;;;4.10;;
79173;SDS011;68599;49.142;9.124;2024-01-15T09:21:38;9.40;;;4.10;;
79173;SDS011;68599;49.142;9.124;2024-01-15T09:24:06;16.50;;;5.00;;
79173;SDS011;68599;49.142;9.124;2024-01-15T09:26:32;11.10;;;4.20;;
79173;SDS011;68599;49.142;9.124;2024-01-15T09:28:59;13.40;;;5.60;;
79173;SDS011;68599;49.142;9.124;2024-01-15T09:31:26;12.90;;;5.20;;
79173;SDS011;68599;49.142;9.124;2024-01-15T09:36:22;12.20;;;4.70;;
79173;SDS011;68599;49.142;9.124;2024-01-15T09:38:49;7.50;;;2.80;;
79173;SDS011;68599;49.142;9.124;2024-01-15T09:41:16;10.60;;;4.00;;
79173;SDS011;68599;49.142;9.124;2024-01-15T09:43:42;7.50;;;3.20;;
79173;SDS011;68599;49.142;9.124;2024-01-15T09:46:09;5.20;;;2.10;;
79173;SDS011;68599;49.142;9.124;2024-01-15T09:48:36;10.00;;;4.40;;
79173;SDS011;68599;49.142;9.124;2024-01-15T09:51:05;7.60;;;3.60;;
79173;SDS011;68599;49.142;9.124;2024-01-15T09:53:34;9.00;;;3.70;;
79173;SDS011;68599;49.142;9.124;2024-01-15T09:56:04;6.80;;;3.30;;
79173;SDS011;68599;49.142;9.124;2024-01-15T09:58:32;6.90;;;3.00;;
79173;SDS011;68599;49.142;9.124;2024-01-15T10:01:01;6.50;;;3.30;;
79173;SDS011;68599;49.142;9.124;2024-01-15T10:03:33;9.00;;;3.20;;
79173;SDS011;68599;49.142;9.124;2024-01-15T10:06:00;9.50;;;3.60;;
79173;SDS011;68599;49.142;9.124;2024-01-15T10:08:28;8.30;;;3.50;;
79173;SDS011;68599;49.142;9.124;2024-01-15T10:10:55;4.70;;;2.00;;
79173;SDS011;68599;49.142;9.124;2024-01-15T10:13:22;5.40;;;2.20;;
79173;SDS011;68599;49.142;9.124;2024-01-15T10:15:48;7.70;;;3.00;;
79173;SDS011;68599;49.142;9.124;2024-01-15T10:18:15;4.30;;;1.70;;
79173;SDS011;68599;49.142;9.124;2024-01-15T10:20:42;10.00;;;2.70;;
79173;SDS011;68599;49.142;9.124;2024-01-15T10:23:09;7.00;;;3.40;;
79173;SDS011;68599;49.142;9.124;2024-01-15T10:25:35;10.80;;;3.30;;
79173;SDS011;68599;49.142;9.124;2024-01-15T10:28:03;9.30;;;2.70;;
79173;SDS011;68599;49.142;9.124;2024-01-15T10:30:31;3.50;;;1.70;;
79173;SDS011;68599;49.142;9.124;2024-01-15T10:33:02;6.70;;;2.60;;
79173;SDS011;68599;49.142;9.124;2024-01-15T10:35:31;9.10;;;3.10;;
79173;SDS011;68599;49.142;9.124;2024-01-15T10:37:59;6.80;;;3.20;;
79173;SDS011;68599;49.142;9.124;2024-01-15T10:40:26;13.80;;;4.90;;
79173;SDS011;68599;49.142;9.124;2024-01-15T10:42:53;7.60;;;2.70;;
79173;SDS011;68599;49.142;9.124;2024-01-15T10:45:21;11.90;;;3.50;;
79173;SDS011;68599;49.142;9.124;2024-01-15T10:47:48;9.80;;;4.00;;
79173;SDS011;68599;49.142;9.124;2024-01-15T10:50:15;7.50;;;3.10;;
79173;SDS011;68599;49.142;9.124;2024-01-15T10:52:42;9.00;;;3.60;;
79173;SDS011;68599;49.142;9.124;2024-01-15T10:55:12;7.70;;;3.10;;
79173;SDS011;68599;49.142;9.124;2024-01-15T10:57:45;6.80;;;3.10;;
79173;SDS011;68599;49.142;9.124;2024-01-15T11:00:14;7.30;;;3.20;;
79173;SDS011;68599;49.142;9.124;2024-01-15T11:02:42;5.80;;;2.80;;
79173;SDS011;68599;49.142;9.124;2024-01-15T11:05:09;6.20;;;2.80;;
79173;SDS011;68599;49.142;9.124;2024-01-15T11:07:35;9.50;;;4.20;;
79173;SDS011;68599;49.142;9.124;2024-01-15T11:10:06;10.30;;;3.90;;
79173;SDS011;68599;49.142;9.124;2024-01-15T11:12:36;10.50;;;3.50;;
79173;SDS011;68599;49.142;9.124;2024-01-15T11:15:07;8.40;;;3.10;;
79173;SDS011;68599;49.142;9.124;2024-01-15T11:20:27;7.10;;;3.10;;
79173;SDS011;68599;49.142;9.124;2024-01-15T11:22:54;9.20;;;4.10;;
79173;SDS011;68599;49.142;9.124;2024-01-15T11:25:23;4.90;;;1.70;;
79173;SDS011;68599;49.142;9.124;2024-01-15T11:27:51;6.30;;;2.80;;
79173;SDS011;68599;49.142;9.124;2024-01-15T11:30:20;8.10;;;3.60;;
79173;SDS011;68599;49.142;9.124;2024-01-15T11:32:52;8.20;;;3.30;;
79173;SDS011;68599;49.142;9.124;2024-01-15T11:35:18;4.90;;;3.00;;
79173;SDS011;68599;49.142;9.124;2024-01-15T11:40:40;12.70;;;4.90;;
79173;SDS011;68599;49.142;9.124;2024-01-15T11:43:08;10.00;;;3.50;;
79173;SDS011;68599;49.142;9.124;2024-01-15T11:50:42;5.00;;;1.70;;
79173;SDS011;68599;49.142;9.124;2024-01-15T11:55:59;7.50;;;2.60;;
79173;SDS011;68599;49.142;9.124;2024-01-15T11:58:28;5.70;;;2.80;;
79173;SDS011;68599;49.142;9.124;2024-01-15T12:00:55;10.20;;;3.80;;
79173;SDS011;68599;49.142;9.124;2024-01-15T12:03:23;8.20;;;3.10;;
79173;SDS011;68599;49.142;9.124;2024-01-15T12:05:54;7.50;;;3.00;;
79173;SDS011;68599;49.142;9.124;2024-01-15T12:08:22;7.40;;;2.70;;
79173;SDS011;68599;49.142;9.124;2024-01-15T12:10:49;7.30;;;2.60;;
79173;SDS011;68599;49.142;9.124;2024-01-15T12:13:16;3.40;;;1.60;;
79173;SDS011;68599;49.142;9.124;2024-01-15T12:15:45;4.80;;;2.20;;
79173;SDS011;68599;49.142;9.124;2024-01-15T12:18:14;6.80;;;3.10;;
79173;SDS011;68599;49.142;9.124;2024-01-15T12:20:42;5.10;;;1.90;;
79173;SDS011;68599;49.142;9.124;2024-01-15T12:23:10;4.10;;;1.60;;
79173;SDS011;68599;49.142;9.124;2024-01-15T12:25:40;5.10;;;2.50;;
79173;SDS011;68599;49.142;9.124;2024-01-15T12:28:10;6.50;;;2.50;;
79173;SDS011;68599;49.142;9.124;2024-01-15T12:30:37;5.10;;;2.20;;
79173;SDS011;68599;49.142;9.124;2024-01-15T12:33:05;4.70;;;2.40;;
79173;SDS011;68599;49.142;9.124;2024-01-15T12:35:35;4.30;;;2.10;;
79173;SDS011;68599;49.142;9.124;2024-01-15T12:38:02;6.20;;;2.60;;
79173;SDS011;68599;49.142;9.124;2024-01-15T12:40:30;6.80;;;2.60;;
79173;SDS011;68599;49.142;9.124;2024-01-15T12:42:59;4.70;;;2.10;;
79173;SDS011;68599;49.142;9.124;2024-01-15T12:45:26;4.80;;;2.10;;
79173;SDS011;68599;49.142;9.124;2024-01-15T12:47:53;6.60;;;3.20;;
79173;SDS011;68599;49.142;9.124;2024-01-15T12:50:23;7.60;;;3.60;;
79173;SDS011;68599;49.142;9.124;2024-01-15T12:52:51;8.60;;;3.20;;
79173;SDS011;68599;49.142;9.124;2024-01-15T12:55:17;11.30;;;3.70;;
79173;SDS011;68599;49.142;9.124;2024-01-15T12:57:44;4.90;;;2.50;;
79173;SDS011;68599;49.142;9.124;2024-01-15T13:00:12;4.60;;;2.00;;
79173;SDS011;68599;49.142;9.124;2024-01-15T13:02:41;3.20;;;1.60;;
79173;SDS011;68599;49.142;9.124;2024-01-15T13:05:10;6.60;;;2.40;;
79173;SDS011;68599;49.142;9.124;2024-01-15T13:07:41;4.70;;;2.10;;
79173;SDS011;68599;49.142;9.124;2024-01-15T13:10:09;2.00;;;0.90;;
79173;SDS011;68599;49.142;9.124;2024-01-15T13:12:37;5.50;;;2.50;;
79173;SDS011;68599;49.142;9.124;2024-01-15T13:15:05;6.00;;;2.70;;
79173;SDS011;68599;49.142;9.124;2024-01-15T13:17:34;3.60;;;1.70;;
79173;SDS011;68599;49.142;9.124;2024-01-15T13:20:01;4.80;;;1.90;;
79173;SDS011;68599;49.142;9.124;2024-01-15T13:22:29;6.40;;;2.80;;
79173;SDS011;68599;49.142;9.124;2024-01-15T13:24:59;5.00;;;2.40;;
79173;SDS011;68599;49.142;9.124;2024-01-15T13:27:27;4.90;;;2.20;;
79173;SDS011;68599;49.142;9.124;2024-01-15T13:29:54;6.20;;;2.60;;
79173;SDS011;68599;49.142;9.124;2024-01-15T13:32:23;3.80;;;1.60;;
79173;SDS011;68599;49.142;9.124;2024-01-15T13:34:53;6.40;;;2.00;;
79173;SDS011;68599;49.142;9.124;2024-01-15T13:37:22;4.70;;;2.70;;
79173;SDS011;68599;49.142;9.124;2024-01-15T13:39:51;8.30;;;4.10;;
79173;SDS011;68599;49.142;9.124;2024-01-15T13:42:19;6.60;;;2.30;;
79173;SDS011;68599;49.142;9.124;2024-01-15T13:44:48;6.60;;;3.10;;
79173;SDS011;68599;49.142;9.124;2024-01-15T13:47:14;5.50;;;2.10;;
79173;SDS011;68599;49.142;9.124;2024-01-15T13:49:41;7.60;;;3.40;;
79173;SDS011;68599;49.142;9.124;2024-01-15T13:52:08;5.20;;;2.60;;
79173;SDS011;68599;49.142;9.124;2024-01-15T13:54:34;5.30;;;2.70;;
79173;SDS011;68599;49.142;9.124;2024-01-15T13:57:15;7.10;;;3.30;;
79173;SDS011;68599;49.142;9.124;2024-01-15T13:59:43;5.10;;;2.10;;
79173;SDS011;68599;49.142;9.124;2024-01-15T14:02:09;5.90;;;3.10;;
79173;SDS011;68599;49.142;9.124;2024-01-15T14:04:37;3.30;;;1.80;;
79173;SDS011;68599;49.142;9.124;2024-01-15T14:07:04;5.50;;;3.00;;
79173;SDS011;68599;49.142;9.124;2024-01-15T14:09:31;5.30;;;2.10;;
79173;SDS011;68599;49.142;9.124;2024-01-15T14:11:58;7.30;;;3.20;;
79173;SDS011;68599;49.142;9.124;2024-01-15T14:14:26;7.60;;;3.50;;
79173;SDS011;68599;49.142;9.124;2024-01-15T14:16:52;5.80;;;2.80;;
79173;SDS011;68599;49.142;9.124;2024-01-15T14:19:19;5.90;;;2.60;;
79173;SDS011;68599;49.142;9.124;2024-01-15T14:21:48;4.70;;;2.30;;
79173;SDS011;68599;49.142;9.124;2024-01-15T14:24:15;5.00;;;2.50;;
79173;SDS011;68599;49.142;9.124;2024-01-15T14:26:42;6.40;;;2.50;;
79173;SDS011;68599;49.142;9.124;2024-01-15T14:29:09;5.60;;;2.10;;
79173;SDS011;68599;49.142;9.124;2024-01-15T14:31:35;4.00;;;2.10;;
79173;SDS011;68599;49.142;9.124;2024-01-15T14:34:02;6.40;;;3.20;;
79173;SDS011;68599;49.142;9.124;2024-01-15T14:36:29;6.10;;;2.80;;
79173;SDS011;68599;49.142;9.124;2024-01-15T14:38:56;6.00;;;2.50;;
79173;SDS011;68599;49.142;9.124;2024-01-15T14:41:23;3.40;;;1.70;;
79173;SDS011;68599;49.142;9.124;2024-01-15T14:43:50;6.50;;;3.30;;
79173;SDS011;68599;49.142;9.124;2024-01-15T14:46:17;4.60;;;1.70;;
79173;SDS011;68599;49.142;9.124;2024-01-15T14:48:43;5.40;;;2.20;;
79173;SDS011;68599;49.142;9.124;2024-01-15T14:51:11;10.10;;;3.20;;
79173;SDS011;68599;49.142;9.124;2024-01-15T14:53:38;7.10;;;2.90;;
79173;SDS011;68599;49.142;9.124;2024-01-15T14:56:05;5.40;;;2.30;;
79173;SDS011;68599;49.142;9.124;2024-01-15T14:58:32;4.90;;;1.90;;
79173;SDS011;68599;49.142;9.124;2024-01-15T15:00:59;5.90;;;3.10;;
79173;SDS011;68599;49.142;9.124;2024-01-15T15:03:26;4.60;;;2.10;;
79173;SDS011;68599;49.142;9.124;2024-01-15T15:05:53;6.10;;;2.90;;
79173;SDS011;68599;49.142;9.124;2024-01-15T15:08:20;6.70;;;2.70;;